Time;durP1;ratioP1;P1;durP2;ratioP2;P2;SDS_P1;SDS_P2;PMS_P1;PMS_P2;Temp;Humidity;BMP_temperature;BMP_pressure;BME280_temperature;BME280_humidity;BME280_pressure;Samples;Min_cycle;Max_cycle;Signal;HPM_P1;HPM_P2
2022/01/27 00:01:47;;;;;;;53.33;34.70;;;5.60;99.90;;;;;;6199577;23;20029;-82
2022/01/27 00:06:40;;;;;;;52.83;35.10;;;5.60;99.90;;;;;;6234722;22;20344;-80
2022/01/27 00:09:22;;;;;;;49.00;33.97;;;5.60;99.90;;;;;;6237816;22;20479;-82
2022/01/27 00:11:48;;;;;;;49.20;34.00;;;5.60;99.90;;;;;;6264963;22;20098;-84
2022/01/27 00:14:17;;;;;;;46.87;33.00;;;5.60;99.90;;;;;;6239292;22;20018;-82
2022/01/27 00:16:52;;;;;;;50.70;34.30;;;5.60;99.90;;;;;;6237424;22;20069;-82
2022/01/27 00:19:18;;;;;;;49.73;34.23;;;5.70;99.90;;;;;;6238357;22;20030;-82
2022/01/27 00:21:44;;;;;;;47.00;33.80;;;5.70;99.90;;;;;;6263549;22;20281;-82
2022/01/27 00:24:10;;;;;;;48.67;33.30;;;5.70;99.90;;;;;;6237769;22;20107;-83
2022/01/27 00:26:36;;;;;;;48.40;33.53;;;5.70;99.90;;;;;;6237573;22;20022;-81
2022/01/27 00:29:02;;;;;;;47.93;34.37;;;5.60;99.90;;;;;;6238367;22;20018;-81
2022/01/27 00:31:28;;;;;;;51.97;36.27;;;5.70;99.90;;;;;;6262070;22;20049;-80
2022/01/27 00:33:54;;;;;;;48.07;34.10;;;5.70;99.90;;;;;;6264477;22;20012;-83
2022/01/27 00:36:21;;;;;;;50.43;36.30;;;5.60;99.90;;;;;;6263331;22;20062;-81
2022/01/27 00:38:49;;;;;;;45.80;33.53;;;5.60;99.90;;;;;;6263606;22;20023;-81
2022/01/27 00:41:19;;;;;;;51.17;34.20;;;5.60;99.90;;;;;;6213710;22;20092;-82
2022/01/27 00:43:46;;;;;;;52.53;34.60;;;5.60;99.90;;;;;;6263004;22;20015;-82
2022/01/27 00:46:16;;;;;;;51.07;34.30;;;5.60;99.90;;;;;;6263879;22;20319;-83
2022/01/27 00:48:42;;;;;;;51.05;33.20;;;5.60;99.90;;;;;;6236923;22;20476;-82
2022/01/27 00:51:10;;;;;;;46.33;33.50;;;5.60;99.90;;;;;;6237136;22;20317;-82
2022/01/27 00:53:49;;;;;;;46.33;31.80;;;5.60;99.90;;;;;;6236119;22;20533;-82
2022/01/27 01:01:26;;;;;;;45.00;32.37;;;5.60;99.90;;;;;;6261931;22;20019;-82
2022/01/27 01:03:56;;;;;;;45.92;31.45;;;5.60;99.90;;;;;;6262007;22;20031;-82
2022/01/27 01:33:08;;;;;;;44.30;31.47;;;5.60;99.90;;;;;;6239590;22;20047;-83
2022/01/27 01:35:52;;;;;;;46.50;31.67;;;5.60;99.90;;;;;;6237619;22;20372;-82
2022/01/27 01:38:25;;;;;;;44.67;32.63;;;5.60;99.90;;;;;;6237163;22;20152;-82
2022/01/27 01:40:53;;;;;;;47.17;31.03;;;5.60;99.90;;;;;;6263166;22;20095;-81
2022/01/27 01:43:20;;;;;;;47.63;31.97;;;5.60;99.90;;;;;;6261288;22;20026;-81
2022/01/27 01:45:51;;;;;;;41.47;31.03;;;5.50;99.90;;;;;;6262412;22;20304;-82
2022/01/27 01:48:17;;;;;;;42.17;30.23;;;5.50;99.90;;;;;;6262055;22;20097;-83
2022/01/27 01:50:43;;;;;;;44.07;30.67;;;5.60;99.90;;;;;;6210932;22;20042;-82
2022/01/27 01:53:10;;;;;;;44.47;30.03;;;5.50;99.90;;;;;;6211650;22;20404;-81
2022/01/27 01:55:36;;;;;;;45.90;31.33;;;5.60;99.90;;;;;;6237428;22;20474;-81
2022/01/27 01:58:03;;;;;;;45.43;30.10;;;5.50;99.90;;;;;;6212875;22;20055;-81
2022/01/27 02:00:29;;;;;;;43.27;31.00;;;5.60;99.90;;;;;;6237977;22;20070;-82
2022/01/27 02:02:55;;;;;;;43.83;29.40;;;5.60;99.90;;;;;;6263208;22;20019;-82
2022/01/27 02:05:29;;;;;;;41.87;29.73;;;5.60;99.90;;;;;;6268849;22;20447;-81
2022/01/27 02:19:13;;;;;;;42.60;30.27;;;5.60;99.90;;;;;;6274836;22;20038;-82
2022/01/27 02:21:43;;;;;;;43.83;30.73;;;5.60;99.90;;;;;;6249089;22;20086;-81
2022/01/27 02:24:09;;;;;;;43.03;31.23;;;5.60;99.90;;;;;;6274238;22;20026;-82
2022/01/27 02:26:35;;;;;;;44.97;31.47;;;5.60;99.90;;;;;;6247687;22;20019;-81
2022/01/27 02:29:00;;;;;;;44.93;31.50;;;5.70;99.90;;;;;;6249202;22;20012;-80
2022/01/27 02:31:26;;;;;;;42.77;30.57;;;5.60;99.90;;;;;;6248027;22;20016;-80
2022/01/27 02:33:57;;;;;;;44.00;32.03;;;5.60;99.90;;;;;;6248604;22;20026;-83
2022/01/27 02:36:23;;;;;;;42.67;29.70;;;5.60;99.90;;;;;;6223222;22;20329;-81
2022/01/27 02:38:49;;;;;;;43.80;31.73;;;5.60;99.90;;;;;;6248350;22;20023;-80
2022/01/27 02:41:16;;;;;;;44.87;31.40;;;5.60;99.90;;;;;;6247942;22;20019;-81
2022/01/27 02:43:42;;;;;;;47.43;33.07;;;5.60;99.90;;;;;;6273491;22;20023;-81
2022/01/27 02:46:15;;;;;;;44.35;32.97;;;5.50;99.90;;;;;;6248457;22;20019;-82
2022/01/27 02:48:41;;;;;;;44.35;33.45;;;5.50;99.90;;;;;;6246498;22;20015;-82
2022/01/27 02:51:06;;;;;;;48.60;34.50;;;5.50;99.90;;;;;;6274179;22;20038;-83
2022/01/27 02:53:35;;;;;;;45.23;33.10;;;5.50;99.90;;;;;;6222707;22;20015;-81
2022/01/27 02:56:04;;;;;;;44.70;33.13;;;5.50;99.90;;;;;;6247888;22;20094;-82
2022/01/27 02:58:49;;;;;;;46.47;33.30;;;5.50;99.90;;;;;;6222309;22;20438;-81
2022/01/27 03:01:20;;;;;;;48.63;34.10;;;5.50;99.90;;;;;;6246833;22;20015;-83
2022/01/27 03:03:46;;;;;;;44.70;33.47;;;5.50;99.90;;;;;;6247876;22;20076;-81
2022/01/27 03:06:12;;;;;;;48.57;33.93;;;5.50;99.90;;;;;;6272226;22;20019;-81
2022/01/27 03:08:38;;;;;;;48.03;33.77;;;5.50;99.90;;;;;;6270917;22;20015;-82
2022/01/27 03:11:10;;;;;;;42.23;31.37;;;5.50;99.90;;;;;;6248100;22;20249;-84
2022/01/27 03:13:36;;;;;;;47.57;33.30;;;5.50;99.90;;;;;;6272576;22;20467;-81
2022/01/27 03:16:05;;;;;;;48.33;34.47;;;5.50;99.90;;;;;;6248669;22;20026;-83
2022/01/27 03:18:31;;;;;;;43.43;33.67;;;5.50;99.90;;;;;;6247145;22;20297;-81
2022/01/27 03:21:01;;;;;;;45.53;34.20;;;5.50;99.90;;;;;;6248369;22;20025;-84
2022/01/27 03:23:27;;;;;;;48.33;34.47;;;5.50;99.90;;;;;;6273586;22;20054;-81
2022/01/27 03:25:53;;;;;;;47.77;34.10;;;5.50;99.90;;;;;;6221984;22;20305;-83
2022/01/27 03:28:24;;;;;;;50.67;35.00;;;5.50;99.90;;;;;;6223309;22;20022;-81
2022/01/27 03:30:49;;;;;;;;;;;5.50;99.90;;;;;;6247707;22;20019;-81
2022/01/27 03:33:15;;;;;;;51.27;37.73;;;5.50;99.90;;;;;;6223031;22;19926;-81
2022/01/27 03:35:41;;;;;;;50.83;35.90;;;5.40;99.90;;;;;;6222772;22;20055;-84
2022/01/27 03:38:07;;;;;;;52.30;37.43;;;5.50;99.90;;;;;;6248068;22;20019;-82
2022/01/27 03:40:32;;;;;;;55.47;37.67;;;5.50;99.90;;;;;;6247389;22;20469;-82
2022/01/27 03:43:06;;;;;;;55.50;37.60;;;5.50;99.90;;;;;;6248134;22;20019;-81
2022/01/27 03:45:33;;;;;;;53.57;38.43;;;5.50;99.90;;;;;;6273569;22;20015;-82
2022/01/27 03:47:59;;;;;;;53.57;37.23;;;5.50;99.90;;;;;;6273040;22;20095;-82
2022/01/27 03:50:25;;;;;;;51.97;38.10;;;5.40;99.90;;;;;;6247801;22;20069;-80
2022/01/27 03:52:50;;;;;;;58.53;40.00;;;5.40;99.90;;;;;;6272760;22;20011;-81
2022/01/27 03:55:16;;;;;;;56.07;37.83;;;5.50;99.90;;;;;;6248020;22;20076;-81
2022/01/27 03:57:42;;;;;;;53.43;36.20;;;5.40;99.90;;;;;;6272472;22;20015;-84
2022/01/27 04:00:09;;;;;;;57.33;37.63;;;5.40;99.90;;;;;;6247626;22;20419;-81
2022/01/27 04:02:38;;;;;;;50.80;36.27;;;5.50;99.90;;;;;;6247727;22;20480;-82
2022/01/27 04:05:04;;;;;;;55.03;37.67;;;5.40;99.90;;;;;;6223452;22;20494;-82
2022/01/27 04:07:30;;;;;;;54.20;36.50;;;5.50;99.90;;;;;;6247655;22;20053;-83
2022/01/27 04:09:56;;;;;;;49.03;35.67;;;5.50;99.90;;;;;;6248440;22;20019;-82
2022/01/27 04:12:21;;;;;;;50.30;34.00;;;5.50;99.90;;;;;;6223195;22;20020;-84
2022/01/27 04:14:47;;;;;;;53.28;35.55;;;5.50;99.90;;;;;;6248150;22;20071;-82
2022/01/27 04:17:13;;;;;;;51.60;36.20;;;5.50;99.90;;;;;;6248796;22;20026;-83
2022/01/27 04:19:39;;;;;;;49.03;35.13;;;5.50;99.90;;;;;;6248076;22;20019;-81
2022/01/27 04:22:05;;;;;;;49.87;34.43;;;5.60;99.90;;;;;;6247955;22;20102;-81
2022/01/27 04:24:31;;;;;;;49.17;33.80;;;5.60;99.90;;;;;;6223079;22;20049;-82
2022/01/27 04:27:04;;;;;;;50.13;35.20;;;5.60;99.90;;;;;;6248443;22;20019;-81
2022/01/27 04:29:33;;;;;;;48.63;34.40;;;5.60;99.90;;;;;;6274852;22;20026;-81
2022/01/27 04:32:01;;;;;;;47.10;34.47;;;5.60;99.90;;;;;;6224382;22;20019;-86
2022/01/27 04:34:31;;;;;;;52.10;36.13;;;5.60;99.90;;;;;;6250859;22;20019;-82
2022/01/27 04:37:05;;;;;;;50.63;34.83;;;5.70;99.90;;;;;;6224989;22;20064;-81
2022/01/27 04:39:38;;;;;;;50.80;34.00;;;5.60;99.90;;;;;;6249856;22;20065;-80
2022/01/27 04:42:12;;;;;;;51.37;33.90;;;5.70;99.90;;;;;;6249506;22;20015;-82
2022/01/27 04:44:55;;;;;;;50.17;33.93;;;5.70;99.90;;;;;;6226061;22;20022;-81
2022/01/27 04:47:28;;;;;;;48.57;32.53;;;5.70;99.90;;;;;;6252964;22;20047;-86
2022/01/27 04:49:54;;;;;;;49.33;33.93;;;5.70;99.90;;;;;;6250734;22;20022;-82
2022/01/27 04:52:20;;;;;;;50.60;35.73;;;5.70;99.90;;;;;;6249087;22;20011;-82
2022/01/27 04:54:59;;;;;;;47.70;34.13;;;5.70;99.90;;;;;;6249588;22;20455;-82
2022/01/27 04:57:28;;;;;;;47.87;32.17;;;5.70;99.90;;;;;;6251866;22;20053;-84
2022/01/27 04:59:54;;;;;;;48.00;32.37;;;5.80;99.90;;;;;;6249443;22;20023;-82
2022/01/27 05:02:30;;;;;;;51.03;32.97;;;5.80;99.90;;;;;;6223334;22;20016;-82
2022/01/27 05:04:56;;;;;;;47.23;31.97;;;5.80;99.90;;;;;;6275811;22;20065;-82
2022/01/27 05:07:22;;;;;;;48.60;33.13;;;5.80;99.90;;;;;;6225203;22;20019;-83
2022/01/27 05:09:56;;;;;;;52.07;32.43;;;5.80;99.90;;;;;;6249898;22;20084;-80
2022/01/27 05:14:54;;;;;;;49.10;32.40;;;5.90;99.90;;;;;;6251532;22;20019;-83
2022/01/27 05:17:20;;;;;;;49.42;30.52;;;5.90;99.90;;;;;;6250655;22;20064;-83
2022/01/27 05:19:47;;;;;;;44.53;30.57;;;5.90;99.90;;;;;;6225123;22;20096;-81
2022/01/27 05:22:14;;;;;;;50.13;31.40;;;5.90;99.90;;;;;;6275527;22;20102;-86
2022/01/27 05:24:39;;;;;;;45.33;31.10;;;6.00;99.90;;;;;;6275489;22;20019;-81
2022/01/27 05:27:05;;;;;;;51.57;31.53;;;6.00;99.90;;;;;;6274856;22;20094;-82
2022/01/27 05:29:31;;;;;;;47.93;31.67;;;6.00;99.90;;;;;;6249779;22;20019;-84
2022/01/27 05:32:00;;;;;;;42.47;28.27;;;6.00;99.90;;;;;;6224119;22;20078;-82
2022/01/27 05:34:25;;;;;;;49.80;31.73;;;6.10;99.90;;;;;;6250356;22;20102;-84
2022/01/27 05:36:51;;;;;;;45.80;30.13;;;6.10;99.90;;;;;;6250088;22;20388;-81
2022/01/27 05:39:17;;;;;;;50.83;31.60;;;6.10;99.90;;;;;;6275533;22;20070;-81
2022/01/27 05:41:43;;;;;;;49.50;29.47;;;6.10;99.90;;;;;;6249451;22;20053;-83
2022/01/27 05:44:09;;;;;;;49.90;29.47;;;6.10;99.90;;;;;;6249953;22;20012;-83
2022/01/27 05:46:35;;;;;;;52.40;31.10;;;6.10;99.90;;;;;;6275276;22;20846;-84
2022/01/27 05:49:02;;;;;;;52.10;29.90;;;6.10;99.90;;;;;;6274873;22;20023;-84
2022/01/27 05:51:30;;;;;;;54.70;31.83;;;6.10;99.90;;;;;;6249472;22;20022;-80
2022/01/27 05:53:56;;;;;;;54.57;30.37;;;6.10;99.90;;;;;;6249070;22;20336;-84
2022/01/27 05:56:22;;;;;;;54.93;30.67;;;6.10;99.90;;;;;;6250325;22;20027;-82
2022/01/27 05:58:47;;;;;;;48.25;31.02;;;6.00;99.90;;;;;;6275532;22;20026;-81
2022/01/27 06:01:13;;;;;;;54.13;32.67;;;6.00;99.90;;;;;;6222342;22;20296;-81
2022/01/27 06:03:39;;;;;;;56.33;32.87;;;6.00;99.90;;;;;;6220055;22;20055;-80
2022/01/27 06:06:05;;;;;;;56.47;31.03;;;6.00;99.90;;;;;;6246517;22;20031;-81
2022/01/27 06:08:31;;;;;;;53.27;30.80;;;6.10;99.90;;;;;;6221677;22;20095;-81
2022/01/27 06:10:58;;;;;;;55.80;31.93;;;6.00;99.90;;;;;;6273060;22;20066;-80
2022/01/27 06:13:24;;;;;;;61.00;31.83;;;6.00;99.90;;;;;;6222440;22;20495;-82
2022/01/27 06:15:50;;;;;;;59.83;32.83;;;6.00;99.90;;;;;;6248989;22;20065;-81
2022/01/27 06:18:15;;;;;;;62.60;33.37;;;6.00;99.90;;;;;;6248093;22;20451;-83
2022/01/27 06:20:44;;;;;;;62.03;32.33;;;6.10;99.90;;;;;;6249008;22;20456;-80
2022/01/27 06:23:11;;;;;;;62.07;32.77;;;6.00;99.90;;;;;;6247591;22;20065;-80
2022/01/27 06:25:38;;;;;;;58.17;33.87;;;6.10;99.90;;;;;;6248261;22;20321;-80
2022/01/27 06:28:04;;;;;;;62.33;34.03;;;6.10;99.90;;;;;;6247193;22;20016;-81
2022/01/27 06:30:34;;;;;;;65.87;34.80;;;6.10;99.90;;;;;;6248074;22;20019;-79
2022/01/27 06:33:04;;;;;;;66.23;34.93;;;6.10;99.90;;;;;;6220512;22;20045;-78
2022/01/27 06:35:31;;;;;;;72.65;36.70;;;6.10;99.90;;;;;;6270891;22;20339;-81
2022/01/27 06:37:57;;;;;;;63.63;35.03;;;6.10;99.90;;;;;;6219262;22;20414;-78
2022/01/27 06:40:23;;;;;;;68.73;34.13;;;6.10;99.90;;;;;;6242664;22;20015;-78
2022/01/27 06:42:49;;;;;;;64.87;34.83;;;6.10;99.90;;;;;;6246344;22;20011;-79
2022/01/27 06:45:18;;;;;;;69.30;35.63;;;6.10;99.90;;;;;;6247105;22;20023;-80
2022/01/27 06:47:44;;;;;;;70.70;35.20;;;6.10;99.90;;;;;;6246869;22;20015;-79
2022/01/27 06:50:09;;;;;;;63.43;33.20;;;6.10;99.90;;;;;;6246324;22;20465;-79
2022/01/27 06:52:39;;;;;;;54.67;31.70;;;6.20;99.90;;;;;;6220080;22;20759;-79
2022/01/27 06:55:05;;;;;;;58.10;31.00;;;6.20;99.90;;;;;;6246878;22;20012;-78
2022/01/27 06:57:33;;;;;;;59.13;31.40;;;6.20;99.90;;;;;;6195526;22;20098;-79
2022/01/27 06:59:59;;;;;;;54.10;29.00;;;6.20;99.90;;;;;;6244929;22;20510;-79
2022/01/27 07:02:25;;;;;;;51.03;28.23;;;6.20;99.90;;;;;;6246089;22;20050;-78
2022/01/27 07:04:51;;;;;;;49.20;27.13;;;6.30;99.90;;;;;;6221756;22;20090;-80
2022/01/27 07:07:17;;;;;;;50.70;29.88;;;6.30;99.90;;;;;;6221699;22;20020;-78
2022/01/27 07:09:42;;;;;;;53.90;29.93;;;6.30;99.90;;;;;;6245999;22;20042;-79
2022/01/27 07:12:09;;;;;;;49.38;28.45;;;6.40;99.90;;;;;;6246428;22;20038;-78
2022/01/27 07:14:35;;;;;;;47.95;27.67;;;6.40;99.90;;;;;;6272974;22;20065;-79
2022/01/27 07:17:01;;;;;;;57.30;31.00;;;6.40;99.90;;;;;;6248137;22;20027;-77
2022/01/27 07:19:30;;;;;;;51.73;30.07;;;6.40;99.90;;;;;;6247633;22;20016;-77
2022/01/27 07:21:56;;;;;;;46.97;26.63;;;6.40;99.90;;;;;;6246559;22;20012;-81
2022/01/27 07:24:21;;;;;;;52.90;29.05;;;6.40;99.90;;;;;;6247715;22;20502;-77
2022/01/27 07:26:47;;;;;;;44.53;25.30;;;6.40;99.90;;;;;;6272653;22;20023;-79
2022/01/27 07:29:13;;;;;;;45.13;27.73;;;6.40;99.90;;;;;;6219854;22;20037;-80
2022/01/27 07:31:39;;;;;;;47.47;26.77;;;6.40;99.90;;;;;;6272705;22;20046;-79
2022/01/27 07:34:05;;;;;;;44.63;26.08;;;6.40;99.90;;;;;;6221593;22;20015;-79
2022/01/27 07:36:31;;;;;;;40.58;25.23;;;6.40;99.90;;;;;;6222015;22;20528;-76
2022/01/27 07:39:01;;;;;;;48.20;28.13;;;6.40;99.90;;;;;;6272568;22;20018;-77
2022/01/27 07:41:26;;;;;;;49.25;26.63;;;6.50;99.90;;;;;;6273229;22;20443;-78
2022/01/27 07:43:52;;;;;;;46.28;26.90;;;6.50;99.90;;;;;;6245369;22;20022;-78
2022/01/27 07:46:18;;;;;;;51.75;29.45;;;6.60;99.90;;;;;;6273461;22;20107;-78
2022/01/27 07:48:44;;;;;;;51.88;28.20;;;6.60;99.90;;;;;;6247346;22;20022;-80
2022/01/27 07:51:11;;;;;;;47.63;26.65;;;6.60;99.90;;;;;;6245408;22;20023;-80
2022/01/27 07:53:38;;;;;;;50.35;28.33;;;6.60;99.90;;;;;;6246322;22;20076;-79
2022/01/27 07:56:04;;;;;;;50.92;26.58;;;6.70;99.90;;;;;;6243043;22;20015;-78
2022/01/27 07:58:31;;;;;;;48.28;27.42;;;6.70;99.90;;;;;;6245023;22;20289;-77
2022/01/27 08:00:58;;;;;;;50.45;26.58;;;6.60;99.90;;;;;;6221487;22;20020;-80
2022/01/27 08:03:24;;;;;;;55.50;28.65;;;6.70;99.90;;;;;;6246655;22;20085;-78
2022/01/27 08:05:50;;;;;;;49.22;27.98;;;6.70;99.90;;;;;;6248918;22;20019;-78
2022/01/27 08:08:16;;;;;;;59.60;28.50;;;6.80;99.90;;;;;;6273421;22;20061;-79
2022/01/27 08:10:44;;;;;;;53.95;27.98;;;6.80;99.90;;;;;;6223189;22;20020;-79
2022/01/27 08:13:11;;;;;;;50.97;28.65;;;6.80;99.90;;;;;;6247959;22;20448;-79
2022/01/27 08:15:40;;;;;;;56.83;28.60;;;6.90;99.90;;;;;;6249342;22;20509;-80
2022/01/27 08:18:05;;;;;;;49.05;26.30;;;6.90;99.90;;;;;;6248577;22;20023;-79
2022/01/27 08:20:33;;;;;;;53.10;27.77;;;7.00;99.90;;;;;;6272217;22;20475;-76
2022/01/27 08:22:59;;;;;;;51.27;25.57;;;7.00;99.90;;;;;;6273889;22;20026;-80
2022/01/27 08:25:25;;;;;;;54.17;25.70;;;7.00;99.90;;;;;;6224630;22;20419;-78
2022/01/27 08:27:54;;;;;;;49.10;25.30;;;7.10;99.90;;;;;;6249453;22;20015;-79
2022/01/27 08:30:24;;;;;;;47.33;25.73;;;7.20;99.90;;;;;;6274659;22;20019;-79
2022/01/27 08:32:57;;;;;;;51.03;24.77;;;7.20;99.90;;;;;;6274392;22;20242;-78
2022/01/27 08:35:24;;;;;;;47.95;24.23;;;7.20;99.90;;;;;;6226949;22;20929;-79
2022/01/27 08:37:51;;;;;;;56.17;25.02;;;7.20;99.90;;;;;;6249778;22;20011;-79
2022/01/27 08:40:17;;;;;;;50.00;23.60;;;7.30;99.90;;;;;;6249341;22;20015;-78
2022/01/27 08:42:44;;;;;;;46.65;23.60;;;7.30;99.90;;;;;;6249737;22;20012;-78
2022/01/27 08:45:15;;;;;;;51.17;24.83;;;7.30;99.90;;;;;;6249978;22;20096;-79
2022/01/27 08:47:43;;;;;;;51.60;23.95;;;7.40;99.90;;;;;;6275185;22;20090;-78
2022/01/27 08:50:10;;;;;;;45.10;23.15;;;7.30;99.90;;;;;;6224665;22;20015;-79
2022/01/27 08:52:36;;;;;;;41.65;20.98;;;7.40;99.90;;;;;;6248314;22;20215;-78
2022/01/27 08:55:04;;;;;;;44.65;20.08;;;7.40;99.90;;;;;;6248143;22;20525;-80
2022/01/27 08:57:30;;;;;;;39.83;19.20;;;7.50;99.90;;;;;;6247502;22;20344;-78
2022/01/27 08:59:56;;;;;;;31.80;18.17;;;7.50;99.90;;;;;;6247119;22;20023;-77
2022/01/27 09:02:22;;;;;;;33.70;17.38;;;7.60;99.90;;;;;;6272891;22;20054;-81
2022/01/27 09:04:49;;;;;;;39.17;16.98;;;7.60;99.90;;;;;;6222488;22;20023;-78
2022/01/27 09:07:15;;;;;;;42.00;19.63;;;7.70;99.90;;;;;;6272767;22;20487;-79
2022/01/27 09:09:44;;;;;;;39.65;17.60;;;7.70;99.90;;;;;;6273399;22;20015;-78
2022/01/27 09:12:11;;;;;;;32.35;16.35;;;7.70;99.90;;;;;;6247672;22;20026;-80
2022/01/27 09:14:40;;;;;;;32.60;15.95;;;7.80;99.90;;;;;;6273687;22;20392;-78
2022/01/27 09:17:06;;;;;;;29.10;15.13;;;7.80;99.90;;;;;;6273989;22;20026;-79
2022/01/27 09:19:37;;;;;;;32.97;15.82;;;7.80;99.90;;;;;;6272976;22;20019;-78
2022/01/27 09:22:12;;;;;;;33.17;15.27;;;7.80;99.90;;;;;;6246969;22;20489;-80
2022/01/27 09:24:49;;;;;;;36.40;14.75;;;7.80;99.90;;;;;;6273543;22;20340;-80
2022/01/27 09:27:16;;;;;;;31.02;14.98;;;7.90;99.90;;;;;;6250256;22;20051;-79
2022/01/27 09:29:42;;;;;;;29.90;14.20;;;7.90;99.90;;;;;;6273099;22;20331;-80
2022/01/27 09:32:09;;;;;;;30.67;13.85;;;7.90;99.90;;;;;;6274043;22;20019;-79
2022/01/27 09:34:36;;;;;;;28.55;13.60;;;8.00;99.90;;;;;;6273573;22;20030;-81
2022/01/27 09:37:03;;;;;;;29.25;14.20;;;8.00;99.90;;;;;;6275390;22;20019;-80
2022/01/27 09:39:33;;;;;;;29.20;12.10;;;8.00;99.90;;;;;;6247139;22;20019;-78
2022/01/27 09:41:59;;;;;;;;;;;8.10;99.90;;;;;;6248366;22;20343;-79
2022/01/27 09:44:31;;;;;;;21.13;11.02;;;8.10;99.90;;;;;;6273018;22;19927;-79
2022/01/27 09:47:04;;;;;;;26.02;12.50;;;8.20;99.90;;;;;;6273007;22;20411;-80
2022/01/27 09:49:34;;;;;;;27.42;11.82;;;8.30;99.90;;;;;;6274691;22;20102;-79
2022/01/27 09:52:01;;;;;;;27.80;11.15;;;8.30;99.90;;;;;;6247777;22;20467;-79
2022/01/27 09:54:30;;;;;;;24.20;10.10;;;8.30;99.90;;;;;;6221023;22;20021;-78
2022/01/27 09:56:56;;;;;;;21.98;9.50;;;8.40;99.90;;;;;;6248029;22;20149;-78
2022/01/27 09:59:23;;;;;;;25.25;10.88;;;8.40;99.90;;;;;;6224108;22;20454;-79
2022/01/27 10:02:16;;;;;;;22.63;9.85;;;8.40;99.90;;;;;;6271463;22;20022;-79
2022/01/27 10:04:42;;;;;;;25.50;9.32;;;8.40;99.90;;;;;;6243765;22;20019;-80
2022/01/27 10:07:09;;;;;;;23.13;8.38;;;8.40;99.90;;;;;;6272810;22;20098;-80
2022/01/27 10:09:36;;;;;;;21.67;8.90;;;8.50;99.90;;;;;;6220965;22;20360;-80
2022/01/27 10:12:04;;;;;;;21.65;9.20;;;8.50;99.90;;;;;;6245812;22;20026;-80
2022/01/27 10:14:37;;;;;;;20.10;7.97;;;8.50;99.90;;;;;;6269865;22;20049;-81
2022/01/27 10:17:13;;;;;;;20.92;8.75;;;8.60;99.90;;;;;;6269822;22;20470;-81
2022/01/27 10:19:39;;;;;;;23.63;9.07;;;8.60;99.90;;;;;;6243986;22;20451;-78
2022/01/27 10:22:11;;;;;;;19.40;8.57;;;8.60;99.90;;;;;;6245379;22;20061;-80
2022/01/27 10:24:37;;;;;;;25.17;8.23;;;8.70;99.90;;;;;;6247501;22;20030;-78
2022/01/27 10:27:22;;;;;;;22.88;7.30;;;8.70;99.90;;;;;;6271879;22;20023;-78
2022/01/27 10:32:42;;;;;;;20.08;7.63;;;8.80;99.90;;;;;;6272412;22;20024;-80
2022/01/27 10:35:09;;;;;;;21.83;7.60;;;8.90;99.90;;;;;;6272190;22;20019;-77
2022/01/27 10:37:55;;;;;;;22.85;7.85;;;8.80;99.90;;;;;;6245860;22;20513;-81
2022/01/27 10:40:35;;;;;;;17.73;6.47;;;8.90;99.90;;;;;;6273604;22;20011;-82
2022/01/27 10:43:14;;;;;;;21.10;6.93;;;9.00;99.90;;;;;;6248286;22;20019;-80
2022/01/27 10:46:25;;;;;;;20.97;7.23;;;8.90;99.90;;;;;;6273426;22;20475;-80
2022/01/27 10:49:07;;;;;;;21.45;6.80;;;9.00;99.90;;;;;;6248076;22;20015;-82
2022/01/27 10:51:44;;;;;;;16.95;6.63;;;8.90;99.90;;;;;;6274743;22;20068;-82
2022/01/27 10:54:21;;;;;;;22.80;6.45;;;8.90;99.90;;;;;;6223341;22;20049;-79
2022/01/27 10:56:48;;;;;;;25.75;7.75;;;8.90;99.90;;;;;;6274067;22;20057;-81
2022/01/27 10:59:17;;;;;;;19.30;6.70;;;8.90;99.90;;;;;;6272664;22;20022;-83
2022/01/27 11:01:43;;;;;;;21.67;5.90;;;9.00;99.90;;;;;;6273761;22;20514;-83
2022/01/27 11:04:11;;;;;;;16.27;5.30;;;9.00;99.90;;;;;;6247986;22;20125;-83
2022/01/27 11:06:51;;;;;;;16.45;5.50;;;9.00;99.90;;;;;;6248071;22;20019;-83
2022/01/27 11:09:18;;;;;;;21.02;5.88;;;9.00;99.90;;;;;;6246859;22;20073;-82
2022/01/27 11:11:44;;;;;;;24.52;6.15;;;9.10;99.90;;;;;;6240847;22;20022;-82
2022/01/27 11:14:10;;;;;;;18.52;5.47;;;9.00;99.90;;;;;;6216991;22;20531;-85
2022/01/27 11:16:40;;;;;;;16.02;5.35;;;9.10;99.90;;;;;;6266739;22;20046;-82
2022/01/27 11:22:01;;;;;;;19.05;5.43;;;9.10;99.90;;;;;;6244340;22;20020;-83
2022/01/27 11:25:50;;;;;;;24.50;5.57;;;9.10;99.90;;;;;;6219803;22;20031;-81
2022/01/27 11:27:26;;;;;;;20.38;5.47;;;9.10;99.90;;;;;;6242109;22;20026;-82
2022/01/27 11:30:04;;;;;;;16.25;4.95;;;9.10;99.90;;;;;;6241995;22;20034;-85
2022/01/27 11:32:45;;;;;;;17.98;5.22;;;9.20;99.90;;;;;;6242529;22;20016;-81
2022/01/27 11:35:23;;;;;;;21.20;5.25;;;9.20;99.90;;;;;;6267255;22;20075;-81
2022/01/27 11:37:54;;;;;;;17.25;4.13;;;9.20;99.90;;;;;;6265052;22;20094;-84
2022/01/27 11:40:23;;;;;;;16.95;4.90;;;9.30;99.90;;;;;;6268011;22;20095;-81
2022/01/27 11:42:54;;;;;;;16.85;4.25;;;9.30;99.90;;;;;;6269301;22;20054;-82
2022/01/27 11:45:20;;;;;;;20.15;4.60;;;9.30;99.90;;;;;;6244071;22;20024;-81
2022/01/27 11:47:58;;;;;;;14.88;4.03;;;9.30;99.90;;;;;;6270631;22;20023;-81
2022/01/27 11:50:35;;;;;;;18.05;3.67;;;9.30;99.90;;;;;;6244542;22;20459;-83
2022/01/27 11:53:04;;;;;;;16.60;4.30;;;9.20;99.90;;;;;;6243969;22;20026;-81
2022/01/27 11:55:40;;;;;;;14.88;4.35;;;9.30;99.90;;;;;;6243955;22;20015;-83
2022/01/27 11:58:16;;;;;;;17.98;4.57;;;9.30;99.90;;;;;;6269526;22;20316;-84
2022/01/27 12:01:03;;;;;;;20.52;4.55;;;9.40;99.90;;;;;;6242979;22;20062;-81
2022/01/27 12:03:29;;;;;;;19.42;4.07;;;9.40;99.90;;;;;;6241362;22;20107;-84
2022/01/27 12:06:16;;;;;;;13.77;4.57;;;9.30;99.90;;;;;;6242556;22;20051;-82
2022/01/27 12:08:42;;;;;;;14.70;4.00;;;9.40;99.90;;;;;;6269355;22;20400;-81
2022/01/27 12:11:11;;;;;;;16.58;4.30;;;9.30;99.90;;;;;;6272727;22;20020;-86
2022/01/27 12:13:47;;;;;;;15.85;3.53;;;9.40;99.90;;;;;;6249830;22;20019;-81
2022/01/27 12:19:06;;;;;;;17.10;4.25;;;9.30;99.90;;;;;;6274641;22;20094;-82
2022/01/27 12:21:51;;;;;;;19.63;4.53;;;9.40;99.90;;;;;;6248425;22;20019;-86
2022/01/27 12:24:23;;;;;;;17.38;3.70;;;9.40;99.90;;;;;;6274332;22;20102;-81
2022/01/27 12:26:54;;;;;;;12.57;3.70;;;9.40;99.90;;;;;;6249233;22;20388;-82
2022/01/27 12:29:27;;;;;;;11.52;2.72;;;9.40;99.90;;;;;;6249963;22;20022;-83
2022/01/27 12:31:55;;;;;;;17.73;3.95;;;9.30;99.90;;;;;;6274193;22;20513;-81
2022/01/27 12:34:22;;;;;;;18.02;3.55;;;9.40;99.90;;;;;;6275503;22;20038;-83
2022/01/27 12:36:55;;;;;;;20.02;4.18;;;9.40;99.90;;;;;;6222519;22;20019;-84
2022/01/27 12:39:22;;;;;;;14.75;4.05;;;9.40;99.90;;;;;;6275581;22;20054;-82
2022/01/27 12:41:49;;;;;;;18.17;4.53;;;9.40;99.90;;;;;;6223540;22;20015;-82
2022/01/27 12:44:15;;;;;;;17.60;4.72;;;9.40;99.90;;;;;;6247336;22;20019;-84
2022/01/27 12:47:03;;;;;;;13.95;3.30;;;9.40;99.90;;;;;;6199914;22;20018;-84
2022/01/27 12:49:38;;;;;;;14.05;4.53;;;9.40;99.90;;;;;;6275650;22;20011;-82
2022/01/27 12:52:08;;;;;;;17.75;3.92;;;9.40;99.90;;;;;;6273965;22;20023;-81
2022/01/27 12:54:36;;;;;;;18.40;4.28;;;9.40;99.90;;;;;;6249309;22;20019;-86
2022/01/27 12:57:02;;;;;;;22.48;4.32;;;9.50;99.90;;;;;;6223415;22;20458;-83
2022/01/27 12:59:33;;;;;;;19.10;3.67;;;9.40;99.90;;;;;;6248474;22;20094;-82
2022/01/27 13:02:05;;;;;;;16.88;3.67;;;9.40;99.90;;;;;;6249564;22;20451;-85
2022/01/27 13:04:32;;;;;;;13.52;2.90;;;9.40;99.90;;;;;;6248163;22;20024;-86
2022/01/27 13:06:58;;;;;;;16.27;3.60;;;9.40;99.90;;;;;;6248123;22;20033;-85
2022/01/27 13:09:26;;;;;;;21.58;3.70;;;9.40;99.90;;;;;;6248394;22;20452;-85
2022/01/27 13:11:55;;;;;;;17.17;3.50;;;9.40;99.90;;;;;;6248543;22;20047;-84
2022/01/27 13:14:21;;;;;;;17.40;3.83;;;9.40;99.90;;;;;;6249392;22;20026;-83
2022/01/27 13:16:59;;;;;;;19.35;3.70;;;9.40;99.90;;;;;;6249022;22;20023;-85
2022/01/27 13:19:45;;;;;;;16.90;3.00;;;9.40;99.90;;;;;;6274652;22;20450;-82
2022/01/27 13:22:16;;;;;;;17.80;3.58;;;9.40;99.90;;;;;;6273936;22;20023;-85
2022/01/27 13:24:48;;;;;;;19.50;4.38;;;9.40;99.90;;;;;;6274813;22;20023;-84
2022/01/27 13:27:14;;;;;;;21.23;4.05;;;9.40;99.90;;;;;;6273934;22;20359;-83
2022/01/27 13:29:45;;;;;;;16.27;3.50;;;9.40;99.90;;;;;;6223176;22;20021;-82
2022/01/27 13:32:12;;;;;;;16.85;3.20;;;9.40;99.90;;;;;;6222633;22;20336;-84
2022/01/27 13:34:48;;;;;;;16.65;3.25;;;9.40;99.90;;;;;;6273954;22;20351;-84
2022/01/27 13:37:30;;;;;;;18.67;3.92;;;9.40;99.90;;;;;;6274294;22;20019;-82
2022/01/27 13:42:22;;;;;;;20.25;3.78;;;9.40;99.90;;;;;;6273910;22;20034;-83
2022/01/27 13:45:01;;;;;;;10.27;2.80;;;9.40;99.90;;;;;;6273854;22;20023;-88
2022/01/27 13:47:34;;;;;;;17.42;3.60;;;9.40;99.90;;;;;;6249546;22;20018;-84
2022/01/27 13:50:10;;;;;;;12.98;3.42;;;9.40;99.90;;;;;;6273170;22;20105;-82